Time;durP1;ratioP1;P1;durP2;ratioP2;P2;SDS_P1;SDS_P2;PMS_P1;PMS_P2;Temp;Humidity;BMP_temperature;BMP_pressure;BME280_temperature;BME280_humidity;BME280_pressure;Samples;Min_cycle;Max_cycle;Signal;HPM_P1;HPM_P2
2023/12/09 00:01:56;;;;;;;3.10;2.50;;;;;;;0.56;100.00;99530.03;5110982;28;20205;-61
2023/12/09 00:04:23;;;;;;;3.60;2.50;;;;;;;0.61;100.00;99541.66;5111209;28;20201;-61
2023/12/09 00:06:50;;;;;;;2.90;2.07;;;;;;;0.62;100.00;99535.75;5111246;28;20204;-61
2023/12/09 00:09:18;;;;;;;2.27;1.80;;;;;;;0.53;100.00;99525.91;5111034;28;20200;-61
2023/12/09 00:11:44;;;;;;;2.13;1.43;;;;;;;0.62;100.00;99529.91;5110918;28;20482;-61
2023/12/09 00:14:13;;;;;;;4.40;2.73;;;;;;;0.62;100.00;99534.94;5111043;28;20204;-61
2023/12/09 00:16:41;;;;;;;2.80;2.03;;;;;;;0.54;100.00;99531.75;5110994;28;20208;-61
2023/12/09 00:19:09;;;;;;;5.30;2.77;;;;;;;0.50;100.00;99535.22;5110915;28;20232;-61
2023/12/09 00:21:36;;;;;;;2.20;2.00;;;;;;;0.59;100.00;99543.38;5110824;28;20697;-60
2023/12/09 00:24:03;;;;;;;10.70;2.40;;;;;;;0.56;100.00;99545.97;5111303;28;20292;-61
2023/12/09 00:26:30;;;;;;;2.43;2.23;;;;;;;0.58;100.00;99546.75;5110016;28;20219;-60
2023/12/09 00:28:57;;;;;;;2.63;2.20;;;;;;;0.55;100.00;99539.25;5109244;28;20204;-61
2023/12/09 00:31:25;;;;;;;5.60;3.10;;;;;;;0.53;100.00;99541.00;5108363;28;20220;-60
2023/12/09 00:33:52;;;;;;;4.40;2.83;;;;;;;0.47;100.00;99536.13;5110483;28;20701;-60
2023/12/09 00:36:19;;;;;;;5.07;3.07;;;;;;;0.46;100.00;99539.50;5110808;28;20528;-61
2023/12/09 00:38:46;;;;;;;5.60;3.83;;;;;;;0.37;100.00;99534.69;5110274;28;20399;-61
2023/12/09 00:41:12;;;;;;;7.83;4.70;;;;;;;0.28;100.00;99540.75;5110397;28;20690;-60
2023/12/09 00:43:39;;;;;;;6.30;3.37;;;;;;;0.25;100.00;99535.78;5110113;28;20726;-61
2023/12/09 00:46:07;;;;;;;12.70;4.80;;;;;;;0.29;100.00;99541.56;5110511;28;20214;-60
2023/12/09 00:48:35;;;;;;;3.60;2.00;;;;;;;0.31;100.00;99539.84;5110165;28;20284;-61
2023/12/09 00:51:01;;;;;;;5.97;3.70;;;;;;;0.19;100.00;99551.84;5110473;28;20198;-60
2023/12/09 00:53:28;;;;;;;2.70;2.00;;;;;;;0.22;100.00;99551.78;5110706;28;20197;-60
2023/12/09 00:55:55;;;;;;;5.77;3.23;;;;;;;0.24;100.00;99558.47;5109971;28;20197;-60
2023/12/09 00:58:22;;;;;;;4.87;3.50;;;;;;;0.31;100.00;99560.78;5109954;28;20598;-60
2023/12/09 01:00:49;;;;;;;3.53;2.10;;;;;;;0.38;100.00;99551.44;5109858;28;20212;-61
2023/12/09 01:03:15;;;;;;;5.57;3.50;;;;;;;0.38;100.00;99552.25;5109930;28;20221;-61
2023/12/09 01:05:44;;;;;;;2.03;1.83;;;;;;;0.47;100.00;99553.75;5109905;28;20198;-60
2023/12/09 01:08:11;;;;;;;2.07;1.73;;;;;;;0.50;100.00;99551.16;5109902;28;20197;-61
2023/12/09 01:10:37;;;;;;;2.50;2.27;;;;;;;0.45;100.00;99552.94;5109930;28;20193;-61
2023/12/09 01:13:04;;;;;;;2.80;1.97;;;;;;;0.39;100.00;99545.53;5109828;28;20204;-61
2023/12/09 01:15:31;;;;;;;3.73;2.17;;;;;;;0.49;100.00;99544.44;5110021;28;20193;-61
2023/12/09 01:17:58;;;;;;;6.87;4.13;;;;;;;0.46;100.00;99542.00;5109418;28;20229;-60
2023/12/09 01:20:25;;;;;;;2.17;2.00;;;;;;;0.42;100.00;99542.94;5109695;28;20596;-61
2023/12/09 01:22:53;;;;;;;3.93;2.87;;;;;;;0.46;100.00;99544.53;5109535;28;20197;-61
2023/12/09 01:25:20;;;;;;;3.70;3.03;;;;;;;0.33;100.00;99533.09;5109398;28;20200;-61
2023/12/09 01:27:47;;;;;;;5.23;3.10;;;;;;;0.37;100.00;99529.66;5109563;28;20209;-61
2023/12/09 01:30:14;;;;;;;2.73;2.47;;;;;;;0.55;100.00;99534.22;5109734;28;20213;-61
2023/12/09 01:32:41;;;;;;;2.30;1.77;;;;;;;0.53;100.00;99533.47;5109365;28;20636;-61
2023/12/09 01:35:08;;;;;;;5.93;2.00;;;;;;;0.65;100.00;99535.66;5109484;28;20220;-60
2023/12/09 01:37:35;;;;;;;3.23;1.60;;;;;;;0.64;100.00;99534.03;5109203;28;20201;-60
2023/12/09 01:40:05;;;;;;;2.37;2.17;;;;;;;0.66;100.00;99537.31;5109499;28;20211;-61
2023/12/09 01:42:31;;;;;;;5.27;1.87;;;;;;;0.75;100.00;99532.91;5109269;28;20210;-61
2023/12/09 01:44:58;;;;;;;4.60;2.83;;;;;;;0.77;100.00;99538.75;5109049;28;20216;-61
2023/12/09 01:47:25;;;;;;;4.93;2.67;;;;;;;0.75;100.00;99550.53;5108982;28;20201;-60
2023/12/09 01:49:52;;;;;;;5.73;2.30;;;;;;;0.72;100.00;99550.63;5109131;28;20193;-61
2023/12/09 01:52:19;;;;;;;4.90;2.70;;;;;;;0.71;100.00;99548.97;5109264;28;20201;-61
2023/12/09 01:54:46;;;;;;;3.93;3.13;;;;;;;0.83;100.00;99546.16;5108926;28;20591;-61
2023/12/09 01:57:15;;;;;;;4.07;2.77;;;;;;;0.83;100.00;99538.59;5109183;28;20201;-61
2023/12/09 01:59:41;;;;;;;2.83;2.13;;;;;;;0.85;100.00;99546.94;5108815;28;20236;-61
2023/12/09 02:02:08;;;;;;;4.97;2.30;;;;;;;0.83;100.00;99541.94;5108845;28;20228;-61
2023/12/09 02:04:35;;;;;;;2.47;2.27;;;;;;;0.78;100.00;99538.69;5109061;28;20213;-61
2023/12/09 02:07:03;;;;;;;4.13;2.43;;;;;;;0.76;100.00;99532.09;5108657;28;20205;-61
2023/12/09 02:09:29;;;;;;;2.27;2.07;;;;;;;0.81;100.00;99536.09;5108813;28;20251;-61
2023/12/09 02:12:03;;;;;;;9.33;3.73;;;;;;;0.81;100.00;99536.09;5108813;28;20204;-61
2023/12/09 02:14:40;;;;;;;2.70;2.00;;;;;;;0.63;100.00;99531.53;5108813;28;20193;-61
2023/12/09 02:17:13;;;;;;;6.20;2.83;;;;;;;0.62;100.00;99525.69;5108853;28;20204;-61
2023/12/09 02:19:41;;;;;;;1.77;1.50;;;;;;;0.56;100.00;99528.34;5108741;28;20260;-61
2023/12/09 02:22:09;;;;;;;2.43;1.30;;;;;;;0.59;100.00;99525.75;5108897;28;20635;-61
2023/12/09 02:24:37;;;;;;;5.30;2.97;;;;;;;0.61;100.00;99523.19;5108640;28;20670;-61
2023/12/09 02:27:11;;;;;;;2.47;2.20;;;;;;;0.61;100.00;99524.03;5109069;28;20220;-61
2023/12/09 02:29:47;;;;;;;5.10;2.20;;;;;;;0.49;100.00;99519.28;5108850;28;20217;-61
2023/12/09 02:32:16;;;;;;;9.50;2.70;;;;;;;0.44;100.00;99521.09;5108695;28;20218;-61
2023/12/09 02:34:44;;;;;;;3.63;3.33;;;;;;;0.52;100.00;99518.38;5108656;28;20201;-61
2023/12/09 02:37:12;;;;;;;2.23;1.80;;;;;;;0.36;100.00;99518.75;5108609;28;20197;-61
2023/12/09 02:39:41;;;;;;;3.37;3.07;;;;;;;0.50;100.00;99520.97;5108618;28;20236;-60
2023/12/09 02:42:09;;;;;;;3.63;3.27;;;;;;;0.45;100.00;99525.25;5108776;28;20205;-61
2023/12/09 02:44:36;;;;;;;7.97;3.07;;;;;;;0.38;100.00;99522.09;5108581;28;20209;-61
2023/12/09 02:47:03;;;;;;;1.97;1.57;;;;;;;0.35;100.00;99521.31;5108461;28;20224;-61
2023/12/09 02:49:30;;;;;;;2.57;2.03;;;;;;;0.26;100.00;99524.03;5108511;28;20747;-61
2023/12/09 02:51:57;;;;;;;14.20;3.50;;;;;;;0.23;100.00;99522.41;5108657;28;20228;-61
2023/12/09 02:54:23;;;;;;;4.57;1.63;;;;;;;0.18;100.00;99525.06;5110355;28;20282;-60
2023/12/09 02:56:52;;;;;;;5.77;2.90;;;;;;;0.21;100.00;99535.03;5112390;28;20206;-61
2023/12/09 02:59:18;;;;;;;5.03;2.37;;;;;;;0.24;100.00;99538.34;5112178;28;20225;-61
2023/12/09 03:01:45;;;;;;;1.80;1.60;;;;;;;-0.06;100.00;99536.50;5111969;28;20204;-61
2023/12/09 03:04:12;;;;;;;0.97;0.97;;;;;;;0.03;100.00;99539.63;5112259;28;20201;-61
2023/12/09 03:06:39;;;;;;;2.50;2.27;;;;;;;0.00;100.00;99535.53;5112381;28;20223;-61
2023/12/09 03:09:06;;;;;;;2.87;1.30;;;;;;;-0.02;100.00;99537.25;5112165;28;20258;-61
2023/12/09 03:11:33;;;;;;;3.33;1.97;;;;;;;0.01;100.00;99536.34;5112362;28;20251;-61
2023/12/09 03:14:01;;;;;;;2.83;2.43;;;;;;;0.07;100.00;99533.69;5111910;28;20595;-61
2023/12/09 03:16:28;;;;;;;3.37;2.53;;;;;;;0.08;100.00;99543.72;5112287;28;20205;-61
2023/12/09 03:18:55;;;;;;;5.03;3.23;;;;;;;-0.01;100.00;99543.91;5111943;28;20229;-61
2023/12/09 03:21:22;;;;;;;4.73;2.77;;;;;;;0.09;100.00;99549.56;5111942;28;20279;-61
2023/12/09 03:23:48;;;;;;;5.37;2.63;;;;;;;0.15;100.00;99552.78;5111833;28;20213;-61
2023/12/09 03:26:16;;;;;;;2.70;2.47;;;;;;;0.26;100.00;99556.72;5111825;28;20209;-61
2023/12/09 03:28:43;;;;;;;5.77;3.63;;;;;;;0.28;100.00;99555.00;5112363;28;20193;-61
2023/12/09 03:31:13;;;;;;;4.47;3.00;;;;;;;0.19;100.00;99551.84;5112170;28;20228;-61
2023/12/09 03:33:40;;;;;;;3.87;2.73;;;;;;;0.29;100.00;99551.63;5111904;28;20675;-61
2023/12/09 03:36:08;;;;;;;11.23;3.43;;;;;;;0.17;100.00;99550.22;5111653;28;20205;-61
2023/12/09 03:38:35;;;;;;;2.83;1.97;;;;;;;0.20;100.00;99553.50;5111701;28;20233;-60
2023/12/09 03:41:04;;;;;;;4.57;2.93;;;;;;;0.25;100.00;99557.59;5111479;28;20206;-61
2023/12/09 03:43:32;;;;;;;3.93;3.20;;;;;;;0.25;100.00;99565.97;5111548;28;20197;-60
2023/12/09 03:45:59;;;;;;;8.47;3.27;;;;;;;0.19;100.00;99556.03;5111234;28;20209;-60
2023/12/09 03:48:27;;;;;;;6.27;3.80;;;;;;;0.32;100.00;99556.59;5111729;28;20204;-60
2023/12/09 03:50:54;;;;;;;4.30;2.30;;;;;;;0.25;100.00;99555.91;5111371;28;20619;-61
2023/12/09 03:53:21;;;;;;;4.23;3.60;;;;;;;0.22;100.00;99546.75;5111235;28;20204;-60
2023/12/09 03:55:49;;;;;;;6.33;3.93;;;;;;;0.27;100.00;99543.31;5111175;28;20205;-60
2023/12/09 03:58:16;;;;;;;6.57;3.70;;;;;;;0.19;100.00;99549.31;5111072;28;20631;-61
2023/12/09 04:00:43;;;;;;;6.87;2.57;;;;;;;0.33;100.00;99550.72;5111070;28;20201;-61
2023/12/09 04:03:10;;;;;;;9.70;4.03;;;;;;;0.33;100.00;99554.03;5110971;28;20604;-61
2023/12/09 04:05:39;;;;;;;3.50;2.80;;;;;;;0.32;100.00;99564.13;5110989;28;20207;-61
2023/12/09 04:08:05;;;;;;;4.60;4.13;;;;;;;0.33;100.00;99559.06;5111296;28;20229;-61
2023/12/09 04:10:32;;;;;;;2.30;1.70;;;;;;;0.25;100.00;99565.16;5110961;28;20208;-61
2023/12/09 04:12:59;;;;;;;4.13;2.17;;;;;;;0.29;100.00;99556.66;5110997;28;20224;-61
2023/12/09 04:15:27;;;;;;;6.07;3.00;;;;;;;0.29;100.00;99552.47;5111156;28;20197;-61
2023/12/09 04:17:54;;;;;;;3.53;2.33;;;;;;;0.30;100.00;99548.28;5110722;28;20228;-61
2023/12/09 04:20:21;;;;;;;5.80;4.17;;;;;;;0.27;100.00;99548.34;5110685;28;20257;-60
2023/12/09 04:22:49;;;;;;;7.20;2.93;;;;;;;0.19;100.00;99551.03;5110610;28;20205;-61
2023/12/09 04:25:16;;;;;;;5.63;3.07;;;;;;;0.17;100.00;99550.22;5109748;28;20194;-60
2023/12/09 04:27:43;;;;;;;3.33;2.40;;;;;;;0.12;100.00;99547.81;5108895;28;20229;-60
2023/12/09 04:30:11;;;;;;;2.93;2.40;;;;;;;0.03;100.00;99545.53;5110072;28;20236;-60
2023/12/09 04:32:38;;;;;;;4.13;3.17;;;;;;;0.13;100.00;99546.94;5110519;28;20426;-61
2023/12/09 04:35:06;;;;;;;5.97;4.33;;;;;;;0.15;100.00;99550.25;5110842;28;20715;-61
2023/12/09 04:37:33;;;;;;;11.17;4.93;;;;;;;0.08;100.00;99553.75;5110397;28;20288;-61
2023/12/09 04:40:04;;;;;;;3.93;2.70;;;;;;;0.16;100.00;99551.91;5110345;28;20258;-61
2023/12/09 04:42:31;;;;;;;3.70;2.73;;;;;;;0.07;100.00;99562.19;5110577;28;20239;-61
2023/12/09 04:44:57;;;;;;;2.10;1.87;;;;;;;0.03;100.00;99565.63;5110206;28;20189;-61
2023/12/09 04:47:24;;;;;;;4.17;3.60;;;;;;;-0.03;100.00;99569.09;5110227;28;20208;-61
2023/12/09 04:49:51;;;;;;;2.77;2.00;;;;;;;-0.08;100.00;99567.53;5110077;28;20205;-61
2023/12/09 04:52:18;;;;;;;3.93;2.43;;;;;;;-0.01;100.00;99572.38;5110291;28;20220;-61
2023/12/09 04:54:45;;;;;;;4.87;2.93;;;;;;;0.03;100.00;99578.19;5110066;28;20198;-60
2023/12/09 04:57:13;;;;;;;5.53;2.90;;;;;;;0.01;100.00;99582.41;5110107;27;20197;-61
2023/12/09 04:59:40;;;;;;;7.67;3.90;;;;;;;-0.07;100.00;99589.28;5109860;28;20235;-61
2023/12/09 05:02:06;;;;;;;5.83;3.63;;;;;;;-0.08;100.00;99592.66;5109718;28;20218;-61
2023/12/09 05:04:33;;;;;;;3.17;2.40;;;;;;;-0.06;100.00;99593.44;5109877;28;20701;-60
2023/12/09 05:07:00;;;;;;;2.93;2.63;;;;;;;-0.06;100.00;99598.47;5110098;28;20278;-61
2023/12/09 05:09:27;;;;;;;5.10;3.67;;;;;;;-0.06;100.00;99596.81;5109995;28;20193;-61
2023/12/09 05:11:53;;;;;;;7.17;3.73;;;;;;;0.05;100.00;99604.09;5109852;28;20201;-60
2023/12/09 05:14:22;;;;;;;4.30;3.40;;;;;;;0.00;100.00;99595.84;5109677;28;20691;-61
2023/12/09 05:16:49;;;;;;;3.93;3.53;;;;;;;0.06;100.00;99605.78;5109064;28;20214;-61
2023/12/09 05:19:15;;;;;;;5.23;3.57;;;;;;;0.06;100.00;99605.78;5109627;28;20225;-61
2023/12/09 05:21:42;;;;;;;12.73;4.40;;;;;;;0.07;100.00;99606.59;5109589;28;20194;-61
2023/12/09 05:24:09;;;;;;;7.70;4.57;;;;;;;-0.03;100.00;99605.94;5109607;28;20213;-61
2023/12/09 05:26:36;;;;;;;5.83;3.87;;;;;;;0.09;100.00;99612.41;5109576;28;20674;-61
2023/12/09 05:29:03;;;;;;;2.90;2.53;;;;;;;0.02;100.00;99611.72;5109573;28;20201;-61
2023/12/09 05:31:31;;;;;;;4.80;3.93;;;;;;;0.01;100.00;99607.56;5109742;28;20231;-61
2023/12/09 05:33:58;;;;;;;3.03;2.40;;;;;;;-0.09;100.00;99611.09;5109375;28;20194;-61
2023/12/09 05:36:25;;;;;;;14.50;3.10;;;;;;;-0.04;100.00;99614.34;5108017;28;20217;-61
2023/12/09 05:38:51;;;;;;;5.33;3.50;;;;;;;-0.01;100.00;99614.28;5107678;28;20197;-61
2023/12/09 05:41:18;;;;;;;4.67;3.27;;;;;;;-0.04;100.00;99624.41;5108914;27;20205;-61
2023/12/09 05:43:45;;;;;;;6.70;3.80;;;;;;;-0.12;100.00;99617.00;5109198;28;20223;-61
2023/12/09 05:46:18;;;;;;;5.13;3.50;;;;;;;-0.11;100.00;99618.69;5109424;28;20247;-61
2023/12/09 05:48:48;;;;;;;8.60;3.13;;;;;;;-0.01;100.00;99619.31;5109289;28;20193;-61
2023/12/09 05:51:14;;;;;;;5.13;2.70;;;;;;;-0.03;100.00;99623.53;5109222;28;20201;-61
2023/12/09 05:53:42;;;;;;;5.83;3.53;;;;;;;0.01;100.00;99625.16;5109326;28;20212;-61
2023/12/09 05:56:10;;;;;;;3.60;2.13;;;;;;;0.00;100.00;99626.03;5109051;28;20197;-60
2023/12/09 05:58:38;;;;;;;3.00;2.80;;;;;;;0.02;100.00;99621.78;5109134;28;20224;-61
2023/12/09 06:01:05;;;;;;;5.57;2.27;;;;;;;0.05;100.00;99620.88;5108906;28;20240;-61
2023/12/09 06:03:32;;;;;;;7.50;4.17;;;;;;;0.05;100.00;99624.22;5109142;28;20239;-61
2023/12/09 06:06:00;;;;;;;11.33;3.43;;;;;;;0.11;100.00;99629.13;5108792;28;20201;-61
2023/12/09 06:08:27;;;;;;;1.73;1.63;;;;;;;0.16;100.00;99622.31;5109313;28;20201;-61
2023/12/09 06:10:53;;;;;;;3.50;3.07;;;;;;;0.08;100.00;99630.88;5108949;28;20208;-61
2023/12/09 06:13:20;;;;;;;9.30;4.20;;;;;;;0.12;100.00;99630.78;5108901;28;20198;-61
2023/12/09 06:15:47;;;;;;;1.90;1.73;;;;;;;0.12;100.00;99635.81;5108809;28;20204;-61
2023/12/09 06:18:14;;;;;;;3.30;2.50;;;;;;;-0.10;100.00;99630.38;5108633;28;20200;-61
2023/12/09 06:20:41;;;;;;;4.20;3.47;;;;;;;0.04;100.00;99636.84;5108584;28;20737;-61
2023/12/09 06:23:09;;;;;;;5.60;2.43;;;;;;;0.11;100.00;99639.16;5108953;28;20315;-61
2023/12/09 06:25:36;;;;;;;8.30;3.00;;;;;;;0.00;100.00;99641.09;5108554;28;20310;-61
2023/12/09 06:28:03;;;;;;;16.50;5.27;;;;;;;-0.03;100.00;99652.03;5108971;28;20291;-61
2023/12/09 06:30:30;;;;;;;3.47;1.83;;;;;;;-0.02;100.00;99657.91;5112615;28;20204;-61
2023/12/09 06:32:56;;;;;;;9.40;5.00;;;;;;;0.00;100.00;99656.19;5112766;28;20220;-61
2023/12/09 06:35:23;;;;;;;3.33;2.53;;;;;;;0.15;100.00;99660.91;5112903;28;20194;-61
2023/12/09 06:37:50;;;;;;;11.57;2.53;;;;;;;0.25;100.00;99663.22;5112551;28;20596;-61
2023/12/09 06:40:18;;;;;;;4.67;3.47;;;;;;;0.15;100.00;99665.94;5112589;28;20232;-60
2023/12/09 06:42:45;;;;;;;4.37;3.33;;;;;;;-0.05;100.00;99657.94;5112669;28;20208;-61
2023/12/09 06:45:12;;;;;;;7.63;3.17;;;;;;;0.02;100.00;99664.50;5112557;28;20201;-60
2023/12/09 06:47:38;;;;;;;7.23;3.17;;;;;;;0.12;100.00;99660.97;5112620;28;20693;-60
2023/12/09 06:50:07;;;;;;;4.90;2.43;;;;;;;0.18;100.00;99665.03;5112705;28;20201;-60
2023/12/09 06:52:33;;;;;;;6.27;1.70;;;;;;;0.09;100.00;99670.22;5112440;28;20204;-61
2023/12/09 06:55:00;;;;;;;5.17;3.17;;;;;;;0.24;100.00;99681.69;5112431;28;20197;-60
2023/12/09 06:57:29;;;;;;;7.97;3.73;;;;;;;0.19;100.00;99675.03;5112635;28;20284;-60
2023/12/09 06:59:56;;;;;;;7.37;3.53;;;;;;;0.27;100.00;99682.44;5112548;28;20225;-61
2023/12/09 07:02:23;;;;;;;5.13;3.10;;;;;;;0.28;100.00;99685.78;5112390;28;20200;-60
2023/12/09 07:04:49;;;;;;;4.63;2.60;;;;;;;0.41;100.00;99685.50;5112338;28;20289;-60
2023/12/09 07:07:17;;;;;;;3.33;3.03;;;;;;;0.48;100.00;99683.69;5112408;28;20205;-61
2023/12/09 07:09:44;;;;;;;5.40;4.13;;;;;;;0.53;100.00;99686.94;5112208;28;20201;-61
2023/12/09 07:12:10;;;;;;;8.17;5.00;;;;;;;0.35;100.00;99687.28;5112249;28;20232;-61
2023/12/09 07:14:39;;;;;;;3.33;2.50;;;;;;;0.56;100.00;99676.78;5112264;28;20198;-60
2023/12/09 07:17:05;;;;;;;5.33;2.37;;;;;;;0.52;100.00;99697.00;5112385;28;20217;-60
2023/12/09 07:19:33;;;;;;;6.50;4.23;;;;;;;0.46;100.00;99700.47;5111940;28;20791;-60
2023/12/09 07:22:00;;;;;;;10.70;2.90;;;;;;;0.38;100.00;99698.16;5111806;27;20201;-60
2023/12/09 07:24:27;;;;;;;5.07;3.60;;;;;;;0.35;100.00;99697.34;5112326;28;20189;-60
2023/12/09 07:26:54;;;;;;;6.67;2.87;;;;;;;0.45;100.00;99693.81;5112075;28;20228;-60
2023/12/09 07:29:20;;;;;;;19.70;4.70;;;;;;;0.58;100.00;99702.75;5112045;27;20229;-60
2023/12/09 07:31:49;;;;;;;6.17;5.20;;;;;;;0.75;100.00;99697.34;5111774;28;20204;-61
2023/12/09 07:34:18;;;;;;;6.90;4.23;;;;;;;0.69;100.00;99710.06;5111835;28;20193;-60
2023/12/09 07:36:44;;;;;;;2.60;2.23;;;;;;;0.68;100.00;99714.25;5111651;28;20598;-60
2023/12/09 07:39:11;;;;;;;2.73;2.53;;;;;;;0.78;100.00;99711.53;5111625;28;20209;-60
2023/12/09 07:41:38;;;;;;;4.73;1.87;;;;;;;0.78;100.00;99706.50;5111614;28;20205;-61
2023/12/09 07:44:05;;;;;;;3.43;2.57;;;;;;;0.83;100.00;99709.75;5111453;28;20710;-60
2023/12/09 07:46:32;;;;;;;3.17;2.77;;;;;;;0.73;100.00;99718.34;5111464;28;20201;-60
2023/12/09 07:49:00;;;;;;;5.77;3.87;;;;;;;0.73;100.00;99714.19;5111610;28;20228;-60
2023/12/09 07:51:27;;;;;;;2.40;2.20;;;;;;;0.73;100.00;99713.31;5111312;28;20197;-60
2023/12/09 07:53:54;;;;;;;12.70;2.87;;;;;;;0.66;100.00;99715.97;5111625;28;20224;-61
2023/12/09 07:56:21;;;;;;;2.60;2.40;;;;;;;0.82;100.00;99720.69;5111383;28;20205;-60
2023/12/09 07:58:47;;;;;;;4.67;3.77;;;;;;;0.92;100.00;99712.06;5111179;28;20201;-60
2023/12/09 08:01:14;;;;;;;6.77;3.60;;;;;;;1.01;100.00;99718.56;5111059;28;20251;-60
2023/12/09 08:03:41;;;;;;;5.17;3.33;;;;;;;0.96;100.00;99715.31;5111090;27;20201;-61
2023/12/09 08:06:10;;;;;;;4.60;2.47;;;;;;;1.16;100.00;99722.41;5111200;28;20198;-61
2023/12/09 08:08:36;;;;;;;9.40;3.00;;;;;;;1.02;100.00;99718.56;5111237;28;20277;-61
2023/12/09 08:11:04;;;;;;;7.33;3.57;;;;;;;0.97;100.00;99725.38;5110899;28;20212;-61
2023/12/09 08:13:30;;;;;;;4.37;2.37;;;;;;;0.99;100.00;99721.16;5110971;28;20208;-60
2023/12/09 08:15:57;;;;;;;6.17;3.43;;;;;;;0.97;100.00;99719.53;5111215;28;20205;-61
2023/12/09 08:18:24;;;;;;;2.40;2.10;;;;;;;1.12;100.00;99712.44;5111034;28;20208;-60
2023/12/09 08:20:51;;;;;;;2.87;2.57;;;;;;;1.11;100.00;99725.88;5110736;28;20229;-60
2023/12/09 08:23:19;;;;;;;2.80;2.23;;;;;;;1.11;100.00;99720.84;5111174;28;20207;-61
2023/12/09 08:25:46;;;;;;;8.53;4.00;;;;;;;1.00;100.00;99712.72;5110789;28;20212;-61
2023/12/09 08:28:14;;;;;;;1.37;1.27;;;;;;;1.20;100.00;99711.44;5111095;28;20287;-60
2023/12/09 08:30:40;;;;;;;4.80;3.03;;;;;;;1.32;100.00;99709.44;5110531;28;20638;-61
2023/12/09 08:33:07;;;;;;;8.03;3.63;;;;;;;1.42;100.00;99699.94;5110897;27;20201;-60
2023/12/09 08:35:34;;;;;;;3.10;2.57;;;;;;;1.51;100.00;99709.81;5110506;28;20729;-61
2023/12/09 08:38:01;;;;;;;4.03;3.23;;;;;;;1.34;100.00;99711.94;5110473;28;20233;-61
2023/12/09 08:40:29;;;;;;;9.23;2.90;;;;;;;1.20;100.00;99713.94;5110512;28;20702;-61
2023/12/09 08:42:56;;;;;;;13.00;3.73;;;;;;;1.28;100.00;99714.56;5110347;28;20396;-61
2023/12/09 08:45:23;;;;;;;5.73;2.33;;;;;;;1.55;100.00;99710.56;5110332;28;20685;-61
2023/12/09 08:47:49;;;;;;;4.60;1.83;;;;;;;1.57;100.00;99714.69;5109450;28;20224;-61
2023/12/09 08:50:16;;;;;;;5.50;3.07;;;;;;;1.60;100.00;99708.75;5108773;28;20201;-60
2023/12/09 08:52:43;;;;;;;9.93;3.07;;;;;;;1.73;100.00;99710.06;5108236;28;20194;-61
2023/12/09 08:55:10;;;;;;;3.10;2.23;;;;;;;1.74;100.00;99713.41;5110097;28;20308;-61
2023/12/09 08:57:39;;;;;;;1.63;1.30;;;;;;;1.67;100.00;99711.94;5110341;28;20201;-61
2023/12/09 09:00:08;;;;;;;5.87;1.73;;;;;;;1.52;100.00;99711.47;5110089;28;20255;-61
2023/12/09 09:02:35;;;;;;;5.70;1.00;;;;;;;1.73;100.00;99714.28;5110451;28;20582;-61
2023/12/09 09:05:03;;;;;;;2.03;1.83;;;;;;;1.60;100.00;99708.75;5109882;28;20780;-61
2023/12/09 09:07:30;;;;;;;2.23;2.00;;;;;;;1.60;100.00;99713.78;5109763;28;20309;-61
2023/12/09 09:09:56;;;;;;;1.17;1.07;;;;;;;1.48;100.00;99709.03;5109928;28;20204;-61
2023/12/09 09:12:23;;;;;;;1.53;0.83;;;;;;;1.49;100.00;99711.53;5109947;28;20587;-61
2023/12/09 09:14:51;;;;;;;3.07;1.47;;;;;;;1.62;100.00;99701.97;5110026;28;20654;-60
2023/12/09 09:17:18;;;;;;;2.00;1.33;;;;;;;1.64;100.00;99704.47;5109702;28;20205;-60
2023/12/09 09:19:45;;;;;;;1.73;1.50;;;;;;;1.43;100.00;99696.56;5109678;28;20201;-60
2023/12/09 09:22:12;;;;;;;2.77;2.40;;;;;;;1.54;100.00;99694.63;5109982;28;20201;-59
2023/12/09 09:24:38;;;;;;;2.10;1.90;;;;;;;1.47;100.00;99688.06;5109580;28;20708;-61
2023/12/09 09:27:05;;;;;;;1.93;1.83;;;;;;;1.66;100.00;99692.63;5109877;28;20205;-60
2023/12/09 09:29:32;;;;;;;1.27;1.17;;;;;;;1.66;100.00;99687.56;5109861;28;20201;-60
2023/12/09 09:32:00;;;;;;;1.87;1.77;;;;;;;1.70;100.00;99684.13;5109383;28;20245;-60
2023/12/09 09:34:27;;;;;;;4.03;2.47;;;;;;;1.68;100.00;99680.81;5109361;28;20197;-60
2023/12/09 09:36:54;;;;;;;1.77;1.60;;;;;;;1.77;100.00;99675.53;5109836;28;20208;-61
2023/12/09 09:39:21;;;;;;;1.97;1.77;;;;;;;1.58;100.00;99676.03;5109324;28;20208;-61
2023/12/09 09:41:59;;;;;;;2.50;2.23;;;;;;;1.63;100.00;99677.56;5109225;28;20228;-60
2023/12/09 09:44:27;;;;;;;4.93;1.87;;;;;;;1.72;100.00;99677.38;5109265;28;20205;-61
2023/12/09 09:46:58;;;;;;;5.57;2.93;;;;;;;1.87;100.00;99671.91;5109101;28;20677;-60
2023/12/09 09:49:34;;;;;;;8.97;3.97;;;;;;;1.92;100.00;99675.13;5109428;28;20197;-60
2023/12/09 09:52:03;;;;;;;4.23;0.97;;;;;;;2.04;100.00;99679.81;5109094;28;20209;-60
2023/12/09 09:54:32;;;;;;;1.33;1.00;;;;;;;2.14;100.00;99664.44;5109074;28;20236;-60
2023/12/09 09:57:03;;;;;;;1.83;1.30;;;;;;;2.06;100.00;99664.63;5108779;28;20228;-60
2023/12/09 09:59:32;;;;;;;3.20;2.13;;;;;;;1.93;100.00;99661.66;5108561;28;20648;-60
2023/12/09 10:01:58;;;;;;;2.50;1.50;;;;;;;1.81;100.00;99661.97;5109021;28;20225;-60
2023/12/09 10:04:27;;;;;;;1.90;1.80;;;;;;;1.88;100.00;99662.63;5109098;28;20208;-59
2023/12/09 10:06:55;;;;;;;3.67;1.77;;;;;;;2.03;100.00;99665.53;5108845;28;20208;-58
2023/12/09 10:09:22;;;;;;;2.70;1.93;;;;;;;1.88;100.00;99662.63;5109100;28;20201;-58
2023/12/09 10:11:49;;;;;;;5.63;2.83;;;;;;;1.97;100.00;99658.16;5109214;28;20506;-58
2023/12/09 10:14:17;;;;;;;8.97;2.80;;;;;;;2.04;100.00;99669.75;5109435;28;20205;-57
2023/12/09 10:16:46;;;;;;;4.20;2.50;;;;;;;1.71;100.00;99660.56;5108592;28;20225;-58
2023/12/09 10:19:16;;;;;;;3.80;1.63;;;;;;;1.79;100.00;99653.63;5108539;28;20445;-58
2023/12/09 10:21:44;;;;;;;3.17;2.27;;;;;;;1.92;100.00;99657.47;5107545;28;20320;-58
2023/12/09 10:24:11;;;;;;;4.90;2.90;;;;;;;1.96;100.00;99656.50;5109085;28;20220;-58
2023/12/09 10:26:39;;;;;;;1.23;1.17;;;;;;;1.92;100.00;99649.91;5108713;28;20688;-58
2023/12/09 10:29:07;;;;;;;2.37;1.83;;;;;;;2.09;100.00;99646.91;5108980;28;20209;-60
2023/12/09 10:31:35;;;;;;;2.87;1.47;;;;;;;2.15;100.00;99645.91;5108125;28;20582;-58
2023/12/09 10:34:03;;;;;;;4.93;2.03;;;;;;;2.25;100.00;99642.25;5108429;28;20201;-58
2023/12/09 10:36:30;;;;;;;3.60;1.77;;;;;;;2.28;100.00;99641.34;5108525;28;20637;-58
2023/12/09 10:38:59;;;;;;;3.30;2.10;;;;;;;2.38;100.00;99637.66;5108314;28;20208;-58
2023/12/09 10:41:26;;;;;;;5.87;3.00;;;;;;;2.40;100.00;99656.09;5108691;28;20325;-58
2023/12/09 10:43:54;;;;;;;4.80;1.90;;;;;;;2.31;100.00;99647.13;5108739;28;20193;-58
2023/12/09 10:46:21;;;;;;;5.80;3.00;;;;;;;2.30;100.00;99645.47;5108519;28;20201;-58
2023/12/09 10:48:48;;;;;;;5.97;2.73;;;;;;;2.28;100.00;99641.34;5108411;28;20564;-58
2023/12/09 10:51:15;;;;;;;4.77;2.30;;;;;;;2.23;100.00;99644.81;5108563;28;20208;-58
2023/12/09 10:53:42;;;;;;;4.33;2.93;;;;;;;2.25;100.00;99638.03;5108290;28;20666;-58
2023/12/09 10:56:11;;;;;;;3.37;1.57;;;;;;;2.28;100.00;99639.63;5108558;28;20244;-58
2023/12/09 10:58:38;;;;;;;4.70;2.80;;;;;;;2.24;100.00;99628.81;5108200;28;20589;-58
2023/12/09 11:01:06;;;;;;;2.43;1.90;;;;;;;2.31;100.00;99626.94;5067422;28;20416;-58
2023/12/09 11:03:34;;;;;;;5.63;2.87;;;;;;;2.22;100.00;99625.50;5066923;28;20209;-58
2023/12/09 11:06:05;;;;;;;7.93;3.20;;;;;;;2.23;100.00;99623.78;5067724;28;20211;-58
2023/12/09 11:08:34;;;;;;;5.40;2.77;;;;;;;2.10;100.00;99613.25;5068114;28;20195;-58
2023/12/09 11:11:05;;;;;;;3.83;3.00;;;;;;;2.14;100.00;99613.97;5067831;28;20719;-58
2023/12/09 11:13:35;;;;;;;2.13;1.67;;;;;;;2.24;100.00;99606.09;5071763;28;20202;-58
2023/12/09 11:16:12;;;;;;;5.97;2.87;;;;;;;2.20;100.00;99608.75;5090641;28;21104;-58
2023/12/09 11:18:50;;;;;;;1.57;1.43;;;;;;;2.22;100.00;99612.06;5091923;28;20276;-58
2023/12/09 11:21:18;;;;;;;5.90;3.97;;;;;;;2.29;100.00;99608.47;5091385;28;20654;-59
2023/12/09 11:23:48;;;;;;;2.77;2.00;;;;;;;2.29;100.00;99613.53;5091512;28;20194;-58
2023/12/09 11:26:18;;;;;;;1.30;1.20;;;;;;;2.31;100.00;99614.31;5091613;28;20229;-58
2023/12/09 11:29:00;;;;;;;3.83;2.77;;;;;;;2.21;100.00;99610.41;5091459;28;20224;-58
2023/12/09 11:31:35;;;;;;;6.77;3.20;;;;;;;2.22;100.00;99601.97;5091236;28;20280;-58
2023/12/09 11:34:02;;;;;;;2.30;2.07;;;;;;;2.18;100.00;99605.44;5091519;28;20209;-58